Time;durP1;ratioP1;P1;durP2;ratioP2;P2;SDS_P1;SDS_P2;PMS_P1;PMS_P2;Temp;Humidity;BMP_temperature;BMP_pressure;BME280_temperature;BME280_humidity;BME280_pressure;Samples;Min_cycle;Max_cycle;Signal;HPM_P1;HPM_P2
2022/07/10 00:02:15;;;;;;;13.52;10.23;;;;;;;13.39;100.00;93061.25;5109896;28;21218;-77
2022/07/10 00:04:42;;;;;;;12.68;10.63;;;;;;;13.42;100.00;93065.97;5109431;28;20055;-77
2022/07/10 00:07:09;;;;;;;12.25;10.95;;;;;;;13.38;100.00;93070.78;5109597;28;20280;-77
2022/07/10 00:09:36;;;;;;;13.27;10.70;;;;;;;13.35;100.00;93064.31;5109813;28;20048;-77
2022/07/10 00:12:03;;;;;;;13.10;10.65;;;;;;;13.14;100.00;93034.75;5109837;28;20040;-77
2022/07/10 00:14:30;;;;;;;13.23;11.32;;;;;;;13.32;100.00;93061.38;5109985;28;20071;-77
2022/07/10 00:16:57;;;;;;;12.50;10.43;;;;;;;13.32;100.00;93067.34;5109833;28;20039;-77
2022/07/10 00:19:25;;;;;;;11.77;10.52;;;;;;;13.32;100.00;93063.97;5109737;28;20050;-77
2022/07/10 00:21:52;;;;;;;12.43;10.90;;;;;;;13.27;100.00;93063.88;5109767;28;20055;-77
2022/07/10 00:24:18;;;;;;;12.30;10.82;;;;;;;13.19;100.00;93057.31;5109741;28;20088;-77
2022/07/10 00:26:47;;;;;;;13.00;11.60;;;;;;;13.20;100.00;93057.06;5109670;28;20412;-77
2022/07/10 00:29:14;;;;;;;14.23;10.75;;;;;;;13.10;100.00;93042.19;5109650;28;20437;-77
2022/07/10 00:31:40;;;;;;;14.00;11.80;;;;;;;13.17;100.00;93054.94;5109439;28;20128;-77
2022/07/10 00:34:07;;;;;;;14.57;11.65;;;;;;;13.18;100.00;93053.13;5109262;28;20036;-77
2022/07/10 00:36:35;;;;;;;14.57;11.82;;;;;;;13.15;100.00;93053.59;5109566;28;20052;-77
2022/07/10 00:39:02;;;;;;;14.35;11.57;;;;;;;13.16;100.00;93053.38;5108997;28;20500;-77
2022/07/10 00:41:29;;;;;;;15.73;11.43;;;;;;;13.16;100.00;93039.69;5109153;28;20046;-77
2022/07/10 00:43:57;;;;;;;14.40;11.77;;;;;;;13.18;100.00;93045.41;5109153;28;20077;-77
2022/07/10 00:46:24;;;;;;;17.08;11.98;;;;;;;13.20;100.00;93041.56;5108933;28;20079;-77
2022/07/10 00:48:52;;;;;;;15.52;11.80;;;;;;;13.19;100.00;93050.34;5109176;28;20508;-77
2022/07/10 00:51:20;;;;;;;13.98;11.98;;;;;;;13.16;100.00;93040.50;5109077;28;20050;-77
2022/07/10 00:53:50;;;;;;;14.90;12.73;;;;;;;13.17;100.00;93031.72;5108210;28;20092;-77
2022/07/10 00:56:19;;;;;;;14.43;12.07;;;;;;;13.16;100.00;93040.50;5109425;28;20375;-77
2022/07/10 00:58:46;;;;;;;14.68;12.07;;;;;;;13.18;100.00;93030.72;5109003;28;20980;-77
2022/07/10 01:01:14;;;;;;;15.50;12.10;;;;;;;13.09;100.00;93027.72;5108906;28;20040;-77
2022/07/10 01:03:41;;;;;;;17.42;12.40;;;;;;;13.14;100.00;93032.19;5108933;28;20100;-77
2022/07/10 01:06:08;;;;;;;13.32;11.90;;;;;;;13.07;100.00;93024.59;5108809;28;20546;-77
2022/07/10 01:08:35;;;;;;;15.98;11.98;;;;;;;13.07;100.00;93034.91;5108787;28;20570;-77
2022/07/10 01:11:03;;;;;;;14.75;12.20;;;;;;;13.02;100.00;93034.81;5108885;28;20171;-77
2022/07/10 01:13:31;;;;;;;16.38;12.25;;;;;;;12.92;100.00;93017.34;5108619;28;20043;-77
2022/07/10 01:15:58;;;;;;;16.02;12.70;;;;;;;12.93;100.00;93020.72;5108870;28;20040;-76
2022/07/10 01:18:26;;;;;;;14.60;11.93;;;;;;;12.99;100.00;93022.38;5109225;28;20431;-77
2022/07/10 01:20:55;;;;;;;15.73;12.45;;;;;;;12.94;100.00;93017.91;5108915;28;20048;-76
2022/07/10 01:23:22;;;;;;;16.80;12.98;;;;;;;12.98;100.00;93025.97;5088269;28;20074;-76
2022/07/10 01:25:51;;;;;;;14.50;12.00;;;;;;;12.91;100.00;93020.16;5090284;28;20055;-76
2022/07/10 01:28:18;;;;;;;16.38;13.02;;;;;;;12.74;100.00;93008.00;5108494;28;20089;-77
2022/07/10 01:30:45;;;;;;;14.98;12.77;;;;;;;12.80;100.00;93022.53;5108313;28;20558;-76
2022/07/10 01:33:11;;;;;;;18.67;13.07;;;;;;;12.74;100.00;93009.78;5108860;28;20044;-77
2022/07/10 01:35:38;;;;;;;17.35;13.60;;;;;;;12.76;100.00;93011.09;5108659;28;20124;-76
2022/07/10 01:38:07;;;;;;;15.00;12.57;;;;;;;12.64;100.00;92992.31;5108655;28;20493;-76
2022/07/10 01:40:34;;;;;;;17.13;13.75;;;;;;;12.70;100.00;92999.91;5109037;28;20054;-76
2022/07/10 01:43:01;;;;;;;17.48;13.45;;;;;;;12.74;100.00;93005.41;5091535;28;20097;-76
2022/07/10 01:45:28;;;;;;;16.33;12.32;;;;;;;12.75;100.00;92996.66;5090589;28;20055;-76
2022/07/10 01:47:54;;;;;;;14.57;11.88;;;;;;;12.76;100.00;92994.84;5100937;28;20052;-76
2022/07/10 01:50:21;;;;;;;16.17;12.43;;;;;;;12.72;100.00;92991.19;5088732;28;20105;-76
2022/07/10 01:52:48;;;;;;;14.73;12.38;;;;;;;12.75;100.00;93001.03;5088901;28;20040;-76
2022/07/10 01:55:16;;;;;;;14.00;10.73;;;;;;;12.71;100.00;92998.13;5088699;28;20562;-76
2022/07/10 01:57:43;;;;;;;13.32;10.75;;;;;;;12.71;100.00;93005.84;5088295;28;20497;-76
2022/07/10 02:00:11;;;;;;;17.25;11.95;;;;;;;12.68;100.00;93006.28;5088569;28;20044;-77
2022/07/10 02:02:38;;;;;;;13.95;11.48;;;;;;;12.67;100.00;93012.47;5088413;28;20044;-76
2022/07/10 02:05:04;;;;;;;15.85;12.38;;;;;;;12.72;100.00;93006.66;5089647;28;20056;-76
2022/07/10 02:07:31;;;;;;;14.13;11.15;;;;;;;12.62;100.00;92994.31;5092212;28;20394;-76
2022/07/10 02:09:57;;;;;;;14.85;12.25;;;;;;;12.65;100.00;92997.22;5092266;28;20059;-77
2022/07/10 02:12:26;;;;;;;15.30;12.10;;;;;;;12.64;100.00;92997.47;5092268;28;20500;-79
2022/07/10 02:14:52;;;;;;;17.63;12.23;;;;;;;12.64;100.00;92990.50;5092899;28;20144;-79
2022/07/10 02:17:19;;;;;;;17.15;12.98;;;;;;;12.66;100.00;92998.00;5092754;28;20055;-78
2022/07/10 02:19:46;;;;;;;17.95;13.05;;;;;;;12.63;100.00;92993.34;5092319;28;20048;-78
2022/07/10 02:22:13;;;;;;;15.07;12.50;;;;;;;12.40;100.00;92964.00;5092452;28;20093;-78
2022/07/10 02:24:39;;;;;;;16.35;11.95;;;;;;;12.56;100.00;92993.44;5092529;28;20059;-78
2022/07/10 02:27:06;;;;;;;15.15;11.55;;;;;;;12.51;100.00;92985.63;5092684;28;20044;-78
2022/07/10 02:29:34;;;;;;;15.90;12.98;;;;;;;12.48;100.00;92983.47;5092348;28;20048;-78
2022/07/10 02:32:01;;;;;;;17.20;13.45;;;;;;;12.50;100.00;92989.22;5092526;28;20048;-78
2022/07/10 02:34:28;;;;;;;16.63;12.35;;;;;;;12.50;100.00;92984.81;5092104;28;20090;-78
2022/07/10 02:36:56;;;;;;;16.58;12.35;;;;;;;12.48;100.00;92992.00;5091811;28;20048;-78
2022/07/10 02:39:23;;;;;;;16.58;13.10;;;;;;;12.35;100.00;92975.00;5091824;28;20077;-77
2022/07/10 02:41:50;;;;;;;15.73;12.40;;;;;;;12.39;100.00;92985.63;5091603;28;20563;-77
2022/07/10 02:44:16;;;;;;;19.33;13.55;;;;;;;12.35;100.00;92993.03;5091902;28;20048;-77
2022/07/10 02:46:44;;;;;;;18.98;12.23;;;;;;;12.33;100.00;92991.69;5108144;28;20055;-76
2022/07/10 02:49:11;;;;;;;18.10;12.70;;;;;;;12.32;100.00;92984.97;5092939;28;20040;-76
2022/07/10 02:51:38;;;;;;;15.20;12.65;;;;;;;12.26;100.00;92984.06;5091479;28;20047;-76
2022/07/10 02:54:05;;;;;;;20.50;13.88;;;;;;;12.27;100.00;92983.06;5091710;28;20040;-77
2022/07/10 02:56:31;;;;;;;14.48;11.85;;;;;;;12.30;100.00;92987.75;5091386;28;20595;-76
2022/07/10 02:58:58;;;;;;;19.50;13.00;;;;;;;12.32;100.00;92992.69;5091307;28;20422;-76
2022/07/10 03:01:25;;;;;;;15.25;11.98;;;;;;;12.24;100.00;92988.66;5091550;28;20044;-77
2022/07/10 03:03:53;;;;;;;15.40;12.38;;;;;;;12.30;100.00;92998.06;5091526;28;20040;-77
2022/07/10 03:06:20;;;;;;;15.98;12.27;;;;;;;12.31;100.00;93007.34;5090928;28;20051;-76
2022/07/10 03:08:47;;;;;;;18.17;12.80;;;;;;;12.31;100.00;93007.34;5091160;28;20048;-76
2022/07/10 03:11:14;;;;;;;14.88;11.68;;;;;;;12.26;100.00;93004.66;5090964;28;20039;-76
2022/07/10 03:13:40;;;;;;;14.93;11.93;;;;;;;12.26;100.00;93015.75;5091185;28;20055;-76
2022/07/10 03:16:07;;;;;;;15.35;11.23;;;;;;;12.27;100.00;93009.59;5090827;28;20448;-76
2022/07/10 03:18:34;;;;;;;13.55;10.50;;;;;;;12.25;100.00;93015.97;5091083;28;20044;-77
2022/07/10 03:21:02;;;;;;;15.18;10.85;;;;;;;12.25;100.00;93016.78;5091222;28;20121;-77
2022/07/10 03:23:29;;;;;;;17.70;11.93;;;;;;;12.27;100.00;93014.75;5091388;28;20047;-77
2022/07/10 03:25:56;;;;;;;47.35;29.75;;;;;;;12.21;100.00;92987.31;5091337;28;20063;-77
2022/07/10 03:28:22;;;;;;;38.60;24.65;;;;;;;12.38;100.00;93017.53;5091001;28;20093;-77
2022/07/10 03:30:49;;;;;;;26.20;18.13;;;;;;;12.41;100.00;93010.16;5090599;28;20043;-76
2022/07/10 03:33:16;;;;;;;33.53;20.63;;;;;;;12.48;100.00;93011.81;5090849;28;20105;-77
2022/07/10 03:35:43;;;;;;;34.92;21.52;;;;;;;12.31;100.00;92983.41;5090652;28;20569;-77
2022/07/10 03:38:11;;;;;;;23.10;16.20;;;;;;;12.52;100.00;93012.94;5090748;28;20044;-77
2022/07/10 03:40:38;;;;;;;17.10;13.05;;;;;;;12.56;100.00;93014.06;5090513;28;20043;-77
2022/07/10 03:43:04;;;;;;;13.73;11.48;;;;;;;12.53;100.00;93015.28;5090681;28;20043;-77
2022/07/10 03:45:31;;;;;;;16.17;11.68;;;;;;;12.47;100.00;93008.47;5093054;28;20071;-77
2022/07/10 03:47:58;;;;;;;12.85;10.52;;;;;;;12.61;100.00;93018.53;5104203;28;20047;-77
2022/07/10 03:50:25;;;;;;;14.00;10.77;;;;;;;12.61;100.00;93027.06;5090488;28;20052;-77
2022/07/10 03:52:51;;;;;;;14.63;10.73;;;;;;;12.62;100.00;93020.88;5090593;28;20044;-77
2022/07/10 03:55:20;;;;;;;15.77;11.20;;;;;;;12.64;100.00;93012.94;5090056;28;20048;-77
2022/07/10 03:57:54;;;;;;;12.90;10.50;;;;;;;12.65;100.00;93014.50;5090050;28;20333;-77
2022/07/10 04:00:22;;;;;;;15.13;10.40;;;;;;;12.62;100.00;93010.56;5089578;28;20040;-77
2022/07/10 04:02:49;;;;;;;13.60;10.27;;;;;;;12.45;100.00;92981.38;5090132;28;20561;-76
2022/07/10 04:05:16;;;;;;;14.35;10.75;;;;;;;12.63;100.00;92999.25;5090091;28;20098;-76
2022/07/10 04:07:43;;;;;;;14.45;12.05;;;;;;;12.68;100.00;93001.13;5089917;28;20117;-78
2022/07/10 04:10:10;;;;;;;13.02;10.68;;;;;;;12.68;100.00;92994.19;5089667;28;20113;-77
2022/07/10 04:12:38;;;;;;;14.65;11.65;;;;;;;12.75;100.00;92998.44;5090119;28;20044;-76
2022/07/10 04:15:06;;;;;;;13.52;10.13;;;;;;;12.87;100.00;93012.06;5090397;28;20330;-77
2022/07/10 04:17:33;;;;;;;14.88;11.38;;;;;;;12.83;100.00;93004.03;5089839;28;20040;-76
2022/07/10 04:20:00;;;;;;;13.63;10.45;;;;;;;12.92;100.00;92995.94;5089310;28;20048;-76
2022/07/10 04:22:27;;;;;;;12.50;10.05;;;;;;;12.92;100.00;92999.28;5094596;27;20048;-75
2022/07/10 04:24:53;;;;;;;18.42;11.48;;;;;;;12.94;100.00;92999.84;5105153;28;20520;-77
2022/07/10 04:27:20;;;;;;;14.68;11.23;;;;;;;12.97;100.00;92998.63;5111521;27;20108;-76
2022/07/10 04:29:49;;;;;;;15.18;10.90;;;;;;;13.04;100.00;92994.09;5106167;28;20051;-76
2022/07/10 04:32:16;;;;;;;15.98;11.38;;;;;;;13.08;100.00;92992.63;5117130;27;20458;-76
2022/07/10 04:34:43;;;;;;;13.20;10.95;;;;;;;13.17;100.00;92992.25;5094446;28;20052;-76
2022/07/10 04:37:10;;;;;;;17.15;12.45;;;;;;;13.20;100.00;92987.41;5089732;28;20040;-76
2022/07/10 04:39:37;;;;;;;15.38;12.57;;;;;;;13.35;100.00;92988.72;5112547;27;20046;-76
2022/07/10 04:42:05;;;;;;;16.00;12.18;;;;;;;13.42;100.00;92986.00;5089706;28;20047;-76
2022/07/10 04:44:32;;;;;;;15.20;12.68;;;;;;;13.51;100.00;92989.00;5089540;28;20051;-77
2022/07/10 04:47:00;;;;;;;21.33;13.55;;;;;;;13.54;100.00;92988.53;5103477;28;20062;-76
2022/07/10 04:49:28;;;;;;;18.35;14.32;;;;;;;13.61;100.00;92984.78;5090588;28;20036;-76
2022/07/10 04:51:56;;;;;;;18.58;13.10;;;;;;;13.66;100.00;92989.22;5088791;28;20048;-76
2022/07/10 04:54:22;;;;;;;18.50;13.63;;;;;;;13.78;100.00;92996.16;5095242;28;20039;-76
2022/07/10 04:56:49;;;;;;;19.30;13.55;;;;;;;13.84;100.00;92990.81;5102430;27;20546;-76
2022/07/10 04:59:16;;;;;;;17.20;13.45;;;;;;;13.89;100.00;92977.22;5089491;28;20455;-77
2022/07/10 05:01:43;;;;;;;18.33;13.30;;;;;;;14.08;100.00;92988.06;5089185;28;20048;-77
2022/07/10 05:04:11;;;;;;;18.60;13.50;;;;;;;14.20;100.00;92985.38;5089356;28;20043;-77
2022/07/10 05:06:38;;;;;;;16.20;12.77;;;;;;;14.16;100.00;92979.91;5097308;28;20040;-77
2022/07/10 05:09:05;;;;;;;15.80;12.90;;;;;;;14.22;100.00;92979.97;5097791;28;20044;-77
2022/07/10 05:11:32;;;;;;;19.30;12.95;;;;;;;14.33;100.00;92994.59;5099002;28;20040;-77
2022/07/10 05:13:59;;;;;;;16.17;13.13;;;;;;;14.42;100.00;92995.75;5102458;28;20514;-77
2022/07/10 05:16:26;;;;;;;18.45;12.68;;;;;;;14.56;100.00;93003.16;5098982;28;20096;-77
2022/07/10 05:18:52;;;;;;;17.13;13.30;;;;;;;14.66;100.00;92994.75;5103414;28;20106;-79
2022/07/10 05:21:21;;;;;;;18.45;13.38;;;;;;;14.79;100.00;92998.81;5089371;28;20520;-78
2022/07/10 05:23:48;;;;;;;16.02;10.95;;;;;;;14.95;100.00;92997.97;5089096;28;20113;-76
2022/07/10 05:26:15;;;;;;;15.20;11.25;;;;;;;15.22;100.00;93009.38;5088877;28;20044;-76
2022/07/10 05:28:41;;;;;;;12.93;9.85;;;;;;;15.34;100.00;93006.66;5088912;28;20052;-76
2022/07/10 05:31:08;;;;;;;14.52;11.20;;;;;;;15.65;100.00;93003.56;5109738;28;20043;-77
2022/07/10 05:33:35;;;;;;;11.80;9.25;;;;;;;15.92;100.00;93002.75;5093211;28;20507;-76
2022/07/10 05:36:02;;;;;;;12.15;9.05;;;;;;;16.12;100.00;93013.25;5088980;28;20048;-77
2022/07/10 05:38:30;;;;;;;9.82;7.53;;;;;;;15.92;100.00;93026.81;5088684;28;20567;-77
2022/07/10 05:40:57;;;;;;;10.13;8.13;;;;;;;16.18;100.00;93008.91;5091798;28;20056;-77
2022/07/10 05:43:23;;;;;;;12.43;8.30;;;;;;;16.27;100.00;93006.63;5092961;28;20476;-77
2022/07/10 05:45:50;;;;;;;10.95;8.35;;;;;;;16.45;100.00;93020.22;5097835;28;20051;-78
2022/07/10 05:48:17;;;;;;;13.73;8.60;;;;;;;16.52;100.00;93018.19;5102092;28;20044;-78
2022/07/10 05:50:44;;;;;;;15.95;9.43;;;;;;;16.58;100.00;93014.59;5092874;28;20051;-78
2022/07/10 05:53:10;;;;;;;13.15;8.85;;;;;;;16.71;100.00;93015.94;5093156;28;20534;-77
2022/07/10 05:55:38;;;;;;;11.63;8.82;;;;;;;16.79;100.00;93015.47;5092485;28;20089;-77
2022/07/10 05:58:05;;;;;;;11.85;8.23;;;;;;;16.94;100.00;93021.75;5091794;28;20040;-77
2022/07/10 06:00:32;;;;;;;12.35;8.30;;;;;;;17.02;100.00;93025.66;5097941;28;20472;-77
2022/07/10 06:02:59;;;;;;;8.98;7.53;;;;;;;17.13;100.00;93029.88;5105861;28;20562;-77
2022/07/10 06:05:25;;;;;;;11.88;7.57;;;;;;;17.23;100.00;93016.94;5097917;28;20626;-77
2022/07/10 06:07:52;;;;;;;10.65;7.38;;;;;;;17.30;100.00;93028.88;5092349;28;20048;-77
2022/07/10 06:10:19;;;;;;;10.00;7.28;;;;;;;17.50;100.00;93020.38;5092340;28;20546;-77
2022/07/10 06:12:47;;;;;;;10.40;6.55;;;;;;;17.70;100.00;93024.81;5092321;28;20039;-76
2022/07/10 06:15:14;;;;;;;12.55;7.00;;;;;;;17.96;100.00;93027.41;5092187;28;20409;-77
2022/07/10 06:17:41;;;;;;;10.57;7.57;;;;;;;17.93;100.00;93027.97;5106935;28;20472;-78
2022/07/10 06:20:08;;;;;;;11.63;6.68;;;;;;;18.05;100.00;93025.06;5102946;28;20048;-77
2022/07/10 06:22:35;;;;;;;8.82;6.25;;;;;;;18.18;100.00;93028.25;5092062;28;20055;-77
2022/07/10 06:25:05;;;;;;;10.52;6.18;;;;;;;18.24;100.00;93014.97;5091884;28;20090;-77
2022/07/10 06:27:32;;;;;;;9.68;5.93;;;;;;;18.52;100.00;93019.88;5092133;28;20134;-76
2022/07/10 06:30:01;;;;;;;8.27;6.13;;;;;;;18.89;100.00;93028.34;5102720;27;20565;-77
2022/07/10 06:32:28;;;;;;;9.40;6.05;;;;;;;19.17;100.00;93021.75;5119734;27;20070;-77
2022/07/10 06:34:56;;;;;;;8.73;5.97;;;;;;;19.43;100.00;93021.63;5093012;28;20048;-77
2022/07/10 06:37:23;;;;;;;7.70;5.47;;;;;;;19.56;100.00;93024.66;5091619;28;20044;-78
2022/07/10 06:39:50;;;;;;;10.10;5.95;;;;;;;19.88;100.00;93026.81;5092816;28;20107;-77
2022/07/10 06:42:17;;;;;;;8.93;4.90;;;;;;;20.09;96.95;93005.03;5095226;28;20089;-77
2022/07/10 06:44:44;;;;;;;10.63;6.53;;;;;;;20.51;100.00;93010.66;5100931;28;20067;-77
2022/07/10 06:49:59;;;;;;;7.40;5.45;;;;;;;20.48;97.26;93008.59;5105311;28;20051;-78
2022/07/10 06:52:26;;;;;;;7.32;4.70;;;;;;;20.76;95.86;93014.81;5090483;28;20117;-78
2022/07/10 06:54:53;;;;;;;9.23;5.00;;;;;;;21.14;96.35;93011.53;5091603;28;20132;-78
2022/07/10 06:57:20;;;;;;;7.55;5.10;;;;;;;21.11;90.02;93003.50;5091538;28;20051;-78
2022/07/10 06:59:47;;;;;;;8.75;4.78;;;;;;;21.19;91.78;93008.06;5091242;28;20089;-79
2022/07/10 07:02:15;;;;;;;12.10;5.22;;;;;;;20.75;91.94;93009.88;5088689;28;20052;-79
2022/07/10 07:04:44;;;;;;;7.57;5.13;;;;;;;21.18;92.21;93007.31;5088786;28;20044;-78
2022/07/10 07:07:11;;;;;;;6.88;4.50;;;;;;;20.81;92.57;92993.91;5091127;28;20051;-79
2022/07/10 07:09:38;;;;;;;6.88;5.13;;;;;;;20.70;93.40;93003.66;5091082;28;20089;-80
2022/07/10 07:12:05;;;;;;;5.53;4.40;;;;;;;20.40;92.93;93004.75;5091107;28;20051;-79
2022/07/10 07:14:33;;;;;;;5.85;4.55;;;;;;;20.62;93.60;93003.50;5091150;28;20048;-80
2022/07/10 07:17:03;;;;;;;9.43;4.65;;;;;;;20.75;94.90;92996.81;5100167;28;20096;-79
2022/07/10 07:23:09;;;;;;;7.03;4.57;;;;;;;21.12;91.49;92992.78;5095767;28;20127;-79
2022/07/10 07:25:17;;;;;;;5.50;4.32;;;;;;;21.03;93.91;92995.22;5028261;28;20060;-79
2022/07/10 07:27:44;;;;;;;6.65;4.22;;;;;;;21.49;92.07;92995.69;5077777;28;20058;-79
2022/07/10 07:30:14;;;;;;;7.88;4.28;;;;;;;21.54;88.13;92986.97;5103813;27;20050;-80
2022/07/10 07:32:42;;;;;;;8.07;4.60;;;;;;;22.09;93.41;92972.56;5100985;28;20051;-78
2022/07/10 07:35:12;;;;;;;5.32;4.35;;;;;;;22.54;89.10;92988.56;5100063;28;20040;-79
2022/07/10 07:37:40;;;;;;;6.18;4.28;;;;;;;22.43;89.42;92981.94;5096578;28;20040;-79
2022/07/10 07:40:09;;;;;;;8.35;4.40;;;;;;;22.90;88.21;92978.47;5090963;28;20055;-79
2022/07/10 07:42:36;;;;;;;5.75;3.58;;;;;;;22.70;80.87;92983.03;5090743;28;20432;-79
2022/07/10 07:45:03;;;;;;;6.55;4.10;;;;;;;23.16;82.39;92975.31;5090456;28;20089;-78
2022/07/10 07:47:30;;;;;;;5.72;3.42;;;;;;;22.99;84.12;92981.94;5104647;28;20056;-78
2022/07/10 07:49:57;;;;;;;4.70;3.45;;;;;;;23.43;83.17;92976.38;5090330;28;20097;-78
2022/07/10 07:52:25;;;;;;;5.35;3.60;;;;;;;22.39;82.93;92978.34;5089855;28;20098;-79
2022/07/10 07:54:52;;;;;;;4.82;3.75;;;;;;;21.53;82.83;92970.53;5090587;28;20047;-79
2022/07/10 07:57:19;;;;;;;4.90;3.53;;;;;;;22.06;88.70;92960.06;5090283;28;20051;-78
2022/07/10 07:59:45;;;;;;;5.60;4.10;;;;;;;22.10;85.09;92961.84;5090089;28;20048;-78
2022/07/10 08:02:12;;;;;;;11.50;4.13;;;;;;;22.09;87.58;92962.91;5089767;28;20052;-78
2022/07/10 08:04:39;;;;;;;6.00;2.97;;;;;;;22.34;83.89;92966.13;5089797;28;20092;-79
2022/07/10 08:07:06;;;;;;;3.45;2.25;;;;;;;22.48;78.88;92954.88;5090097;28;20051;-79
2022/07/10 08:09:34;;;;;;;3.95;2.50;;;;;;;22.27;76.45;92963.88;5089852;28;20040;-79
2022/07/10 08:12:01;;;;;;;4.15;1.90;;;;;;;21.41;73.27;92964.94;5089631;28;20144;-80
2022/07/10 08:14:28;;;;;;;3.53;2.00;;;;;;;21.03;78.82;92969.13;5089927;28;20059;-80
2022/07/10 08:16:55;;;;;;;4.30;2.20;;;;;;;21.17;78.93;92961.38;5097555;28;20040;-79
2022/07/10 08:19:21;;;;;;;5.78;2.35;;;;;;;21.25;77.55;92967.00;5094428;28;20782;-79
2022/07/10 08:21:48;;;;;;;5.97;2.08;;;;;;;21.30;78.99;92964.31;5089604;28;20044;-81
2022/07/10 08:24:16;;;;;;;6.05;2.42;;;;;;;20.96;81.02;92966.06;5089634;28;20048;-79
2022/07/10 08:26:44;;;;;;;5.95;2.20;;;;;;;20.90;77.88;92969.78;5089229;28;20055;-79
2022/07/10 08:29:10;;;;;;;5.43;1.95;;;;;;;21.07;77.99;92972.72;5089878;28;20121;-79
2022/07/10 08:31:39;;;;;;;3.50;2.10;;;;;;;20.61;79.59;92970.63;5103462;27;20489;-79
2022/07/10 08:34:06;;;;;;;3.90;1.83;;;;;;;20.31;77.86;92967.28;5093041;28;20123;-80
2022/07/10 08:36:33;;;;;;;3.65;2.13;;;;;;;20.73;78.12;92965.78;5089305;28;20669;-79
2022/07/10 08:38:59;;;;;;;4.28;1.90;;;;;;;21.11;73.33;92974.75;5089325;28;20502;-79
2022/07/10 08:41:27;;;;;;;4.72;2.10;;;;;;;21.56;71.58;92963.97;5089270;28;20506;-77
2022/07/10 08:43:56;;;;;;;4.50;2.28;;;;;;;21.70;75.57;92959.59;5089307;28;20544;-78
2022/07/10 08:46:24;;;;;;;2.60;1.90;;;;;;;21.26;77.21;92960.72;5098707;28;20047;-79
2022/07/10 08:48:54;;;;;;;4.30;2.13;;;;;;;21.44;77.52;92959.94;5073112;28;20052;-79
2022/07/10 08:51:25;;;;;;;2.47;2.10;;;;;;;21.26;75.03;92966.72;5069159;28;20052;-78
2022/07/10 08:53:53;;;;;;;2.70;2.00;;;;;;;21.05;74.76;92971.44;5068823;28;20127;-78
2022/07/10 08:56:20;;;;;;;2.97;1.80;;;;;;;21.12;73.66;92977.09;5069375;28;20164;-78
2022/07/10 08:58:48;;;;;;;3.15;2.10;;;;;;;20.62;77.44;92972.19;5069323;28;20048;-78
2022/07/10 09:01:22;;;;;;;3.25;1.80;;;;;;;20.75;75.72;92970.72;5069223;28;20051;-78
2022/07/10 09:03:49;;;;;;;3.33;2.25;;;;;;;20.49;78.36;92969.19;5068724;28;20048;-78
2022/07/10 09:06:16;;;;;;;5.32;2.13;;;;;;;20.36;78.73;92969.84;5074262;28;20040;-79
2022/07/10 09:08:59;;;;;;;2.80;2.10;;;;;;;19.96;82.54;92965.53;5080055;28;20055;-77
2022/07/10 09:11:30;;;;;;;4.63;2.42;;;;;;;20.50;81.68;92955.06;5074687;28;20097;-77
2022/07/10 09:13:59;;;;;;;3.78;2.50;;;;;;;20.97;77.13;92962.41;5073536;28;20048;-77
2022/07/10 09:16:30;;;;;;;3.60;1.88;;;;;;;20.95;75.78;92957.47;5070939;28;20102;-78
2022/07/10 09:18:57;;;;;;;3.65;2.00;;;;;;;20.89;77.02;92955.19;5074152;28;20098;-78
2022/07/10 09:21:24;;;;;;;3.63;2.28;;;;;;;21.18;76.16;92964.75;5070372;28;20156;-77
2022/07/10 09:23:52;;;;;;;3.13;2.00;;;;;;;21.10;76.24;92963.53;5070521;28;20060;-77
2022/07/10 09:26:18;;;;;;;2.55;1.90;;;;;;;21.21;73.53;92962.34;5068651;28;20437;-77
2022/07/10 09:28:45;;;;;;;5.22;1.75;;;;;;;21.00;75.18;92956.63;5068922;28;20044;-77
2022/07/10 09:31:12;;;;;;;2.70;1.80;;;;;;;21.28;75.78;92956.00;5086081;28;20048;-78
2022/07/10 09:33:41;;;;;;;4.93;1.75;;;;;;;21.14;72.70;92959.31;5068873;28;20040;-77
2022/07/10 09:36:10;;;;;;;4.07;1.92;;;;;;;20.82;80.05;92953.69;5068641;28;20541;-77
2022/07/10 09:38:57;;;;;;;4.50;2.30;;;;;;;20.47;81.62;92950.44;5068450;28;20045;-77
2022/07/10 09:41:32;;;;;;;4.18;2.30;;;;;;;20.03;80.74;92962.56;5068748;28;20087;-77
2022/07/10 09:44:00;;;;;;;4.47;2.17;;;;;;;20.31;78.99;92959.47;5068858;28;20052;-77
2022/07/10 09:46:31;;;;;;;4.55;2.53;;;;;;;20.29;81.84;92954.53;5079333;28;20052;-77
2022/07/10 09:49:08;;;;;;;4.68;2.58;;;;;;;20.36;80.91;92944.53;5091748;28;20059;-78
2022/07/10 09:51:37;;;;;;;4.25;2.50;;;;;;;20.38;83.58;92957.31;5088706;28;20126;-77
2022/07/10 09:54:05;;;;;;;4.43;2.10;;;;;;;20.90;78.36;92954.91;5088641;28;20044;-76
2022/07/10 09:56:39;;;;;;;4.43;2.00;;;;;;;21.20;77.57;92941.75;5088905;28;20089;-76
2022/07/10 09:59:09;;;;;;;3.38;1.90;;;;;;;21.83;72.02;92955.47;5088841;28;20040;-77
2022/07/10 10:01:38;;;;;;;3.20;2.22;;;;;;;21.76;72.64;92955.06;5088848;28;20089;-77
2022/07/10 10:04:09;;;;;;;2.60;1.88;;;;;;;21.79;69.08;92951.09;5088613;28;20127;-76
2022/07/10 10:06:38;;;;;;;4.47;2.15;;;;;;;21.53;72.34;92941.78;5088495;28;20559;-77
2022/07/10 10:09:08;;;;;;;4.15;2.13;;;;;;;21.67;71.78;92948.91;5088247;28;20051;-76
2022/07/10 10:11:38;;;;;;;5.15;1.83;;;;;;;22.00;74.80;92944.44;5088744;28;20044;-76
2022/07/10 10:14:08;;;;;;;3.88;1.92;;;;;;;22.43;75.57;92942.66;5088645;28;20044;-76
2022/07/10 10:16:36;;;;;;;3.67;1.85;;;;;;;22.07;74.05;92940.72;5094034;28;20036;-77
2022/07/10 10:21:49;;;;;;;2.47;1.85;;;;;;;22.23;75.12;92942.00;5101546;28;20066;-77
2022/07/10 10:24:18;;;;;;;5.53;2.00;;;;;;;21.66;77.57;92948.13;5088605;28;20047;-76
2022/07/10 10:26:46;;;;;;;5.85;2.00;;;;;;;21.47;77.31;92948.91;5090661;28;20436;-77
2022/07/10 10:29:13;;;;;;;4.18;2.15;;;;;;;21.40;78.58;92948.50;5091664;28;20040;-77
2022/07/10 10:31:41;;;;;;;2.42;1.60;;;;;;;21.36;77.47;92950.91;5095449;27;20047;-77
2022/07/10 10:34:07;;;;;;;3.03;1.50;;;;;;;21.14;77.77;92938.41;5095097;28;20043;-77
2022/07/10 10:36:49;;;;;;;3.40;1.88;;;;;;;20.95;78.87;92941.81;5099035;28;20048;-77
2022/07/10 10:39:18;;;;;;;4.65;2.58;;;;;;;20.92;76.84;92941.59;5104825;28;20093;-77
2022/07/10 10:41:50;;;;;;;3.67;1.80;;;;;;;21.19;78.25;92929.72;5098199;28;20051;-77
2022/07/10 10:44:22;;;;;;;2.80;2.15;;;;;;;21.48;75.97;92936.66;5091754;28;20044;-76
2022/07/10 10:47:05;;;;;;;4.65;1.80;;;;;;;22.08;76.88;92924.72;5105048;28;20059;-76
2022/07/10 10:50:01;;;;;;;4.70;2.08;;;;;;;22.16;74.09;92937.13;5104642;28;20044;-77
2022/07/10 10:52:29;;;;;;;5.13;2.25;;;;;;;22.29;72.28;92937.44;5074516;28;20076;-77
2022/07/10 10:55:12;;;;;;;4.72;1.80;;;;;;;22.06;73.63;92913.78;5091795;28;20048;-76
2022/07/10 10:57:51;;;;;;;4.22;1.58;;;;;;;21.70;68.89;92930.03;5091549;28;20044;-76
2022/07/10 11:00:40;;;;;;;3.50;1.45;;;;;;;21.81;65.76;92922.81;5097443;28;20147;-77
2022/07/10 11:03:21;;;;;;;5.68;1.70;;;;;;;22.12;65.76;92914.47;5101759;28;20413;-76
2022/07/10 11:05:50;;;;;;;3.22;1.50;;;;;;;22.26;66.85;92912.63;5091461;28;20049;-76
2022/07/10 11:08:39;;;;;;;2.38;1.50;;;;;;;22.39;69.67;92923.38;5091431;28;20365;-76
2022/07/10 11:11:40;;;;;;;3.40;2.00;;;;;;;22.53;70.25;92913.72;5091385;28;20140;-76
2022/07/10 11:14:09;;;;;;;3.97;1.90;;;;;;;22.38;70.48;92887.81;5091207;28;20123;-76
2022/07/10 11:16:36;;;;;;;5.15;1.73;;;;;;;22.64;68.64;92916.16;5096896;28;20049;-76
2022/07/10 11:19:04;;;;;;;3.90;1.50;;;;;;;22.78;68.95;92914.28;5110276;28;20455;-76
2022/07/10 11:21:48;;;;;;;5.50;1.67;;;;;;;22.79;68.38;92913.22;5091176;28;20127;-76
2022/07/10 11:24:34;;;;;;;3.35;1.67;;;;;;;23.03;66.39;92914.03;5091097;28;20135;-76
2022/07/10 11:27:16;;;;;;;2.53;1.65;;;;;;;23.38;68.16;92914.38;5095968;28;20039;-76
2022/07/10 11:29:47;;;;;;;2.40;1.33;;;;;;;23.62;67.70;92918.53;5111078;27;20080;-76
2022/07/10 11:32:17;;;;;;;4.93;1.58;;;;;;;23.53;65.81;92913.22;5120755;27;20051;-77
2022/07/10 11:34:44;;;;;;;2.47;1.52;;;;;;;23.76;66.36;92913.22;5093334;28;20063;-77